createdAt,value
2023-02-15T00:01:10.427Z,38.33
2023-02-15T00:03:36.974Z,35.43
2023-02-15T00:06:04.211Z,35.07
2023-02-15T00:08:30.795Z,34.73
2023-02-15T00:11:14.033Z,35.63
2023-02-15T00:13:43.350Z,34.07
2023-02-15T00:16:13.547Z,33.43
2023-02-15T00:18:40.075Z,34.10
2023-02-15T00:21:07.804Z,33.80
2023-02-15T00:23:34.513Z,33.47
2023-02-15T00:26:04.507Z,36.47
2023-02-15T00:28:31.381Z,32.97
2023-02-15T00:31:03.439Z,36.23
2023-02-15T00:33:29.908Z,33.87
2023-02-15T00:36:00.178Z,33.47
2023-02-15T00:38:27.735Z,32.27
2023-02-15T00:41:01.497Z,35.17
2023-02-15T00:43:29.649Z,35.47
2023-02-15T00:45:56.061Z,37.10
2023-02-15T00:48:22.469Z,35.30
2023-02-15T00:50:56.487Z,33.63
2023-02-15T00:53:23.329Z,36.63
2023-02-15T00:55:49.869Z,36.10
2023-02-15T00:58:16.666Z,36.67
2023-02-15T01:00:47.061Z,34.53
2023-02-15T01:03:13.993Z,34.03
2023-02-15T01:05:40.916Z,32.17
2023-02-15T01:08:07.669Z,35.63
2023-02-15T01:10:34.640Z,35.30
2023-02-15T01:13:01.048Z,34.13
2023-02-15T01:15:27.517Z,33.10
2023-02-15T01:17:54.391Z,34.23
2023-02-15T01:20:27.665Z,33.13
2023-02-15T01:22:54.599Z,34.30
2023-02-15T01:25:21.966Z,33.93
2023-02-15T01:27:48.652Z,35.17
2023-02-15T01:30:15.759Z,33.70
2023-02-15T01:32:42.824Z,34.53
2023-02-15T01:35:09.598Z,34.60
2023-02-15T01:37:36.022Z,33.17
2023-02-15T01:40:03.632Z,32.00
2023-02-15T01:42:30.123Z,31.60
2023-02-15T01:44:57.745Z,31.50
2023-02-15T01:50:35.382Z,33.17
2023-02-15T01:53:04.567Z,31.30
2023-02-15T01:55:34.176Z,33.97
2023-02-15T01:58:01.324Z,34.27
2023-02-15T02:00:27.994Z,34.80
2023-02-15T02:02:55.869Z,34.80
2023-02-15T02:05:22.531Z,33.87
2023-02-15T02:07:51.301Z,35.10
2023-02-15T02:10:19.095Z,34.53
2023-02-15T02:12:46.736Z,33.83
2023-02-15T02:15:13.479Z,34.67
2023-02-15T02:17:55.187Z,34.33
2023-02-15T02:20:24.651Z,33.93
2023-02-15T02:22:57.036Z,33.03
2023-02-15T02:25:35.734Z,32.50
2023-02-15T02:28:11.061Z,32.20
2023-02-15T02:30:40.607Z,34.63
2023-02-15T02:33:25.639Z,34.93
2023-02-15T02:35:51.947Z,34.70
2023-02-15T02:38:27.646Z,34.63
2023-02-15T02:41:00.225Z,36.70
2023-02-15T02:43:35.872Z,34.13
2023-02-15T02:46:07.726Z,32.73
2023-02-15T02:48:35.011Z,31.27
2023-02-15T02:51:01.466Z,33.83
2023-02-15T02:53:30.957Z,32.47
2023-02-15T02:56:00.424Z,32.37
2023-02-15T02:58:27.102Z,34.57
2023-02-15T03:00:58.521Z,32.47
2023-02-15T03:03:43.827Z,31.77
2023-02-15T03:06:20.455Z,31.10
2023-02-15T03:08:49.589Z,33.30
2023-02-15T03:11:16.114Z,33.03
2023-02-15T03:13:43.022Z,31.87
2023-02-15T03:16:29.030Z,34.00
2023-02-15T03:18:58.961Z,31.63
2023-02-15T03:21:31.295Z,31.70
2023-02-15T03:24:00.679Z,31.23
2023-02-15T03:26:27.847Z,31.27
2023-02-15T03:28:56.627Z,30.70
2023-02-15T03:31:26.159Z,29.97
2023-02-15T03:33:58.685Z,30.30
2023-02-15T03:36:34.403Z,29.77
2023-02-15T03:39:06.959Z,31.67
2023-02-15T03:41:35.248Z,29.47
2023-02-15T03:44:05.855Z,32.43
2023-02-15T03:46:45.095Z,33.67
2023-02-15T03:49:20.836Z,30.33
2023-02-15T03:51:48.455Z,31.83
2023-02-15T03:54:44.884Z,30.87
2023-02-15T03:57:34.584Z,31.03
2023-02-15T04:00:19.998Z,31.43
2023-02-15T04:02:56.721Z,31.60
2023-02-15T04:05:23.258Z,30.87
2023-02-15T04:07:49.662Z,31.23
2023-02-15T04:10:35.194Z,29.53
2023-02-15T04:13:01.563Z,29.77
2023-02-15T04:15:46.753Z,31.17
2023-02-15T04:18:13.279Z,31.57
2023-02-15T04:20:58.336Z,30.57
2023-02-15T04:23:43.283Z,30.73
2023-02-15T04:26:09.641Z,31.30
2023-02-15T04:28:36.200Z,31.20
2023-02-15T04:31:02.569Z,31.73
2023-02-15T04:33:29.079Z,34.97
2023-02-15T04:35:55.490Z,40.67
2023-02-15T04:38:23.471Z,30.23
2023-02-15T04:40:53.269Z,30.27
2023-02-15T04:43:20.092Z,29.27
2023-02-15T04:45:55.547Z,28.97
2023-02-15T04:48:21.977Z,28.70
2023-02-15T04:50:48.402Z,30.53
2023-02-15T04:53:14.984Z,30.43
2023-02-15T04:55:41.822Z,34.93
2023-02-15T04:58:08.240Z,33.13
2023-02-15T05:00:34.796Z,30.57
2023-02-15T05:03:01.280Z,27.27
2023-02-15T05:05:27.903Z,27.77
2023-02-15T05:07:54.323Z,28.50
2023-02-15T05:10:20.841Z,28.17
2023-02-15T05:12:47.239Z,28.93
2023-02-15T05:15:13.645Z,28.77
2023-02-15T05:17:40.255Z,30.10
2023-02-15T05:20:07.033Z,31.37
2023-02-15T05:22:33.438Z,30.63
2023-02-15T05:25:18.639Z,29.43
2023-02-15T05:28:05.225Z,28.87
2023-02-15T05:30:31.967Z,27.97
2023-02-15T05:32:58.485Z,28.77
2023-02-15T05:35:24.925Z,26.83
2023-02-15T05:37:51.276Z,28.43
2023-02-15T05:40:17.703Z,28.57
2023-02-15T05:42:44.155Z,28.97
2023-02-15T05:45:10.940Z,26.50
2023-02-15T05:47:37.297Z,27.07
2023-02-15T05:50:03.794Z,27.33
2023-02-15T05:52:30.236Z,27.70
2023-02-15T05:54:56.637Z,26.57
2023-02-15T05:57:23.085Z,25.57
2023-02-15T05:59:49.480Z,26.57
2023-02-15T06:02:15.991Z,24.67
2023-02-15T06:04:42.512Z,26.33
2023-02-15T06:07:08.987Z,23.57
2023-02-15T06:09:35.383Z,23.03
2023-02-15T06:12:01.793Z,23.33
2023-02-15T06:14:28.161Z,25.10
2023-02-15T06:16:54.528Z,25.27
2023-02-15T06:19:22.055Z,24.30
2023-02-15T06:21:48.439Z,23.67
2023-02-15T06:24:14.880Z,25.10
2023-02-15T06:26:41.313Z,22.97
2023-02-15T06:29:07.699Z,23.97
2023-02-15T06:31:34.773Z,24.43
2023-02-15T06:34:04.005Z,26.27
2023-02-15T06:36:31.316Z,24.83
2023-02-15T06:38:57.943Z,25.57
2023-02-15T06:41:24.628Z,25.00
2023-02-15T06:43:51.458Z,27.00
2023-02-15T06:46:17.848Z,23.67
2023-02-15T06:48:44.323Z,24.80
2023-02-15T06:51:10.833Z,24.93
2023-02-15T06:53:37.301Z,26.63
2023-02-15T06:56:07.755Z,24.53
2023-02-15T06:58:34.463Z,25.87
2023-02-15T07:01:00.894Z,25.10
2023-02-15T07:03:27.479Z,24.63
2023-02-15T07:06:01.336Z,26.40
2023-02-15T07:08:28.376Z,25.20
2023-02-15T07:10:55.486Z,22.50
2023-02-15T07:13:22.141Z,24.23
2023-02-15T07:15:48.885Z,24.17
2023-02-15T07:18:15.340Z,24.20
2023-02-15T07:20:42.701Z,24.17
2023-02-15T07:23:09.328Z,25.60
2023-02-15T07:25:35.829Z,25.00
2023-02-15T07:28:03.392Z,24.80
2023-02-15T07:30:30.627Z,25.47
2023-02-15T07:33:18.731Z,24.17
2023-02-15T07:35:48.977Z,24.03
2023-02-15T07:38:15.619Z,25.00
2023-02-15T07:40:41.992Z,22.87
2023-02-15T07:43:08.437Z,25.53
2023-02-15T07:45:34.836Z,27.23
2023-02-15T07:48:02.000Z,24.53
2023-02-15T07:50:28.357Z,24.50
2023-02-15T07:52:54.788Z,24.07
2023-02-15T07:55:22.744Z,25.67
2023-02-15T07:57:50.039Z,24.80
2023-02-15T08:00:17.893Z,25.00
2023-02-15T08:03:10.910Z,25.40
2023-02-15T08:05:37.796Z,26.03
2023-02-15T08:08:04.253Z,26.87
2023-02-15T08:10:53.858Z,24.43
2023-02-15T08:13:20.256Z,22.80
2023-02-15T08:15:52.502Z,23.67
2023-02-15T08:18:21.654Z,25.10
2023-02-15T08:20:51.025Z,23.33
2023-02-15T08:23:17.428Z,22.67
2023-02-15T08:25:43.838Z,25.60
2023-02-15T08:28:10.367Z,24.77
2023-02-15T08:30:36.799Z,23.73
2023-02-15T08:33:03.604Z,25.30
2023-02-15T08:35:30.060Z,23.60
2023-02-15T08:37:56.501Z,23.33
2023-02-15T08:40:22.833Z,25.23
2023-02-15T08:42:49.305Z,25.27
2023-02-15T08:45:15.739Z,24.87
2023-02-15T08:47:42.130Z,23.43
2023-02-15T08:50:08.669Z,23.27
2023-02-15T08:52:35.111Z,25.87
2023-02-15T08:55:01.496Z,25.53
2023-02-15T08:57:28.160Z,24.83
2023-02-15T08:59:57.087Z,24.03
2023-02-15T09:02:23.516Z,23.07
2023-02-15T09:04:49.960Z,23.40
2023-02-15T09:07:16.764Z,23.47
2023-02-15T09:09:43.285Z,23.57
2023-02-15T09:12:09.656Z,23.03
2023-02-15T09:14:36.091Z,25.33
2023-02-15T09:17:02.499Z,24.23
2023-02-15T09:19:28.862Z,23.97
2023-02-15T09:21:55.646Z,23.17
2023-02-15T09:24:22.093Z,24.63
2023-02-15T09:26:49.006Z,24.27
2023-02-15T09:29:17.043Z,24.63
2023-02-15T09:31:45.745Z,21.87
2023-02-15T09:34:19.872Z,23.60
2023-02-15T09:36:46.428Z,23.70
2023-02-15T09:39:13.998Z,25.00
2023-02-15T09:41:46.598Z,21.47
2023-02-15T09:44:32.009Z,25.70
2023-02-15T09:47:07.453Z,24.50
2023-02-15T09:49:46.094Z,22.87
2023-02-15T09:52:23.023Z,22.17
2023-02-15T09:55:06.431Z,25.33
2023-02-15T09:57:38.807Z,23.50
2023-02-15T10:00:05.269Z,23.87
2023-02-15T10:02:50.375Z,22.60
2023-02-15T10:05:36.981Z,24.73
2023-02-15T10:08:30.388Z,25.77
2023-02-15T10:11:30.808Z,26.90
2023-02-15T10:14:08.925Z,25.93
2023-02-15T10:16:41.350Z,27.63
2023-02-15T10:19:23.012Z,24.07
2023-02-15T10:22:15.620Z,24.83
2023-02-15T10:24:58.398Z,25.60
2023-02-15T10:27:26.762Z,25.90
2023-02-15T10:29:53.228Z,23.63
2023-02-15T10:32:30.435Z,24.90
2023-02-15T10:35:09.570Z,26.47
2023-02-15T10:37:54.690Z,26.10
2023-02-15T10:40:39.487Z,26.63
2023-02-15T10:43:07.772Z,25.87
2023-02-15T10:46:01.805Z,25.63
2023-02-15T10:48:47.128Z,23.23
2023-02-15T10:51:27.854Z,28.30
2023-02-15T10:54:08.914Z,25.27
2023-02-15T10:56:41.532Z,28.30
2023-02-15T10:59:17.536Z,28.20
2023-02-15T11:01:44.608Z,27.63
2023-02-15T11:04:11.112Z,27.53
2023-02-15T11:06:40.327Z,24.53
2023-02-15T11:09:10.788Z,26.93
2023-02-15T11:11:40.402Z,27.63
2023-02-15T11:14:14.782Z,27.07
2023-02-15T11:16:45.263Z,27.33
2023-02-15T11:19:18.610Z,27.20
2023-02-15T11:21:46.682Z,26.77
2023-02-15T11:24:14.423Z,26.83
2023-02-15T11:26:49.741Z,25.90
2023-02-15T11:29:37.053Z,27.47
2023-02-15T11:32:16.131Z,31.20
2023-02-15T11:34:49.453Z,27.50
2023-02-15T11:37:19.104Z,28.73
2023-02-15T11:39:45.484Z,31.37
2023-02-15T11:42:16.552Z,28.23
2023-02-15T11:44:46.099Z,27.77
2023-02-15T11:47:12.906Z,29.57
2023-02-15T11:49:39.316Z,30.80
2023-02-15T11:52:16.077Z,29.40
2023-02-15T11:54:47.600Z,30.73
2023-02-15T11:57:29.347Z,30.60
2023-02-15T12:00:01.784Z,30.07
2023-02-15T12:02:31.131Z,28.63
2023-02-15T12:05:24.022Z,28.30
2023-02-15T12:07:55.321Z,30.57
2023-02-15T12:10:25.830Z,29.17
2023-02-15T12:13:10.793Z,30.97
2023-02-15T12:15:38.273Z,29.23
2023-02-15T12:18:04.712Z,30.07
2023-02-15T12:20:34.482Z,29.13
2023-02-15T12:23:03.546Z,29.13
2023-02-15T12:25:30.393Z,28.50
2023-02-15T12:27:56.855Z,28.67
2023-02-15T12:30:27.498Z,27.10
2023-02-15T12:32:55.539Z,28.53
2023-02-15T12:35:30.432Z,27.93
2023-02-15T12:38:16.800Z,25.63
2023-02-15T12:40:57.861Z,24.80
2023-02-15T12:43:34.573Z,25.47
2023-02-15T12:46:19.917Z,25.27
2023-02-15T12:48:46.335Z,25.53
2023-02-15T12:51:15.378Z,24.63
2023-02-15T12:53:44.685Z,25.30
2023-02-15T12:56:11.700Z,26.70
2023-02-15T12:58:39.577Z,27.50
2023-02-15T13:01:22.200Z,26.53
2023-02-15T13:03:58.487Z,27.93
2023-02-15T13:06:25.188Z,26.10
2023-02-15T13:08:52.899Z,24.60
2023-02-15T13:11:38.494Z,25.53
2023-02-15T13:14:16.240Z,24.93
2023-02-15T13:16:43.566Z,23.80
2023-02-15T13:19:17.837Z,25.80
2023-02-15T13:21:46.412Z,25.97
2023-02-15T13:24:23.921Z,24.83
2023-02-15T13:26:50.855Z,25.77
2023-02-15T13:29:25.384Z,25.43
2023-02-15T13:31:53.384Z,25.37
2023-02-15T13:34:37.563Z,26.37
2023-02-15T13:37:06.741Z,27.70
2023-02-15T13:39:40.697Z,23.13
2023-02-15T13:42:15.446Z,23.03
2023-02-15T13:44:59.059Z,22.97
2023-02-15T13:47:38.876Z,23.00
2023-02-15T13:50:20.418Z,22.40
2023-02-15T13:52:50.891Z,21.90
2023-02-15T13:55:26.137Z,21.03
2023-02-15T13:58:01.365Z,21.07
2023-02-15T14:00:48.244Z,20.30
2023-02-15T14:03:32.946Z,19.23
2023-02-15T14:06:08.883Z,20.80
2023-02-15T14:08:51.203Z,19.20
2023-02-15T14:11:26.263Z,20.67
2023-02-15T14:14:10.240Z,20.13
2023-02-15T14:17:05.423Z,20.70
2023-02-15T14:19:36.653Z,20.70
2023-02-15T14:22:09.507Z,19.63
2023-02-15T14:24:46.184Z,20.43
2023-02-15T14:27:22.118Z,20.30
2023-02-15T14:29:51.474Z,20.80
2023-02-15T14:32:21.606Z,20.33
2023-02-15T14:34:56.435Z,19.53
2023-02-15T14:37:30.208Z,20.27
2023-02-15T14:40:19.152Z,19.67
2023-02-15T14:43:04.148Z,19.00
2023-02-15T14:45:37.061Z,20.20
2023-02-15T14:48:09.338Z,19.70
2023-02-15T14:50:40.651Z,18.87
2023-02-15T14:53:37.027Z,19.33
2023-02-15T14:56:08.574Z,18.60
2023-02-15T14:58:35.042Z,18.60
2023-02-15T15:01:11.553Z,19.60
2023-02-15T15:03:44.249Z,18.63
2023-02-15T15:06:24.827Z,19.53
2023-02-15T15:08:55.977Z,20.37
2023-02-15T15:11:42.155Z,19.60
2023-02-15T15:14:10.120Z,19.40
2023-02-15T15:16:37.063Z,20.23
2023-02-15T15:19:10.916Z,19.33
2023-02-15T15:21:49.335Z,20.83
2023-02-15T15:24:45.052Z,40.23
2023-02-15T15:27:30.548Z,22.17
2023-02-15T15:29:57.028Z,20.10
2023-02-15T15:32:27.806Z,20.93
2023-02-15T15:35:16.498Z,20.97
2023-02-15T15:37:50.267Z,19.23
2023-02-15T15:40:36.268Z,20.23
2023-02-15T15:43:28.943Z,19.80
2023-02-15T15:45:55.366Z,20.57
2023-02-15T15:48:30.788Z,21.33
2023-02-15T15:51:01.705Z,22.10
2023-02-15T15:53:29.781Z,21.00
2023-02-15T15:55:58.737Z,21.60
2023-02-15T15:58:25.256Z,20.57
2023-02-15T16:00:54.096Z,20.03
2023-02-15T16:03:26.079Z,25.67
2023-02-15T16:05:56.212Z,25.40
2023-02-15T16:08:28.700Z,23.67
2023-02-15T16:10:55.120Z,20.20
2023-02-15T16:13:21.581Z,20.90
2023-02-15T16:15:53.465Z,21.20
2023-02-15T16:18:22.097Z,19.53
2023-02-15T16:20:50.958Z,21.53
2023-02-15T16:23:25.206Z,20.33
2023-02-15T16:26:05.335Z,21.10
2023-02-15T16:28:32.049Z,19.60
2023-02-15T16:31:15.093Z,20.10
2023-02-15T16:33:42.368Z,20.37
2023-02-15T16:36:28.138Z,21.03
2023-02-15T16:38:57.593Z,19.50
2023-02-15T16:41:28.538Z,21.20
2023-02-15T16:43:55.541Z,19.67
2023-02-15T16:46:27.376Z,21.83
2023-02-15T16:48:56.097Z,22.03
2023-02-15T16:51:23.901Z,22.23
2023-02-15T16:53:50.759Z,22.20
2023-02-15T16:56:23.067Z,22.93
2023-02-15T16:58:51.204Z,22.37
2023-02-15T17:01:20.995Z,22.37
2023-02-15T17:03:49.828Z,22.43
2023-02-15T17:06:21.661Z,21.70
2023-02-15T17:08:49.571Z,22.37
2023-02-15T17:11:17.886Z,22.37
2023-02-15T17:14:03.599Z,22.57
2023-02-15T17:16:32.894Z,21.53
2023-02-15T17:19:00.443Z,22.93
2023-02-15T17:21:30.631Z,20.97
2023-02-15T17:24:01.362Z,21.90
2023-02-15T17:26:32.497Z,21.87
2023-02-15T17:29:17.621Z,22.67
2023-02-15T17:31:48.024Z,21.80
2023-02-15T17:34:35.229Z,22.50
2023-02-15T17:37:03.342Z,22.37
2023-02-15T17:39:29.738Z,22.40
2023-02-15T17:41:56.206Z,22.97
2023-02-15T17:44:22.858Z,23.13
2023-02-15T17:46:49.276Z,21.83
2023-02-15T17:49:23.793Z,22.50
2023-02-15T17:51:50.213Z,22.03
2023-02-15T17:54:35.356Z,23.37
2023-02-15T17:57:05.709Z,21.80
2023-02-15T17:59:32.297Z,22.37
2023-02-15T18:02:17.423Z,22.30
2023-02-15T18:05:02.323Z,21.77
2023-02-15T18:07:48.240Z,21.80
2023-02-15T18:10:34.040Z,22.20
2023-02-15T18:13:00.397Z,21.23
2023-02-15T18:15:27.111Z,24.53
2023-02-15T18:17:54.057Z,24.67
2023-02-15T18:20:24.305Z,21.77
2023-02-15T18:22:51.722Z,21.27
2023-02-15T18:25:19.745Z,22.00
2023-02-15T18:27:46.273Z,22.00
2023-02-15T18:30:21.464Z,20.80
2023-02-15T18:32:51.362Z,20.93
2023-02-15T18:35:20.414Z,23.13
2023-02-15T18:37:47.235Z,23.50
2023-02-15T18:40:17.766Z,21.90
2023-02-15T18:42:48.161Z,21.17
2023-02-15T18:45:16.394Z,22.90
2023-02-15T18:47:42.825Z,21.67
2023-02-15T18:50:09.411Z,22.40
2023-02-15T18:52:37.322Z,21.03
2023-02-15T18:55:08.129Z,22.13
2023-02-15T18:57:34.680Z,21.67
2023-02-15T19:00:01.204Z,22.37
2023-02-15T19:02:28.262Z,22.80
2023-02-15T19:04:54.649Z,22.97
2023-02-15T19:07:26.247Z,23.40
2023-02-15T19:09:54.249Z,25.90
2023-02-15T19:12:20.745Z,22.63
2023-02-15T19:14:47.197Z,21.20
2023-02-15T19:17:18.244Z,22.83
2023-02-15T19:19:45.983Z,20.50
2023-02-15T19:22:14.254Z,23.93
2023-02-15T19:24:41.826Z,22.07
2023-02-15T19:27:19.568Z,20.47
2023-02-15T19:29:46.009Z,19.57
2023-02-15T19:32:12.779Z,21.60
2023-02-15T19:34:40.167Z,23.00
2023-02-15T19:37:08.882Z,20.30
2023-02-15T19:39:37.456Z,22.13
2023-02-15T19:42:04.200Z,21.93
2023-02-15T19:44:30.984Z,25.80
2023-02-15T19:46:57.674Z,28.30
2023-02-15T19:49:24.126Z,21.67
2023-02-15T19:51:50.621Z,21.63
2023-02-15T19:54:20.509Z,21.50
2023-02-15T19:56:49.756Z,19.97
2023-02-15T19:59:36.558Z,20.83
2023-02-15T20:02:02.966Z,22.13
2023-02-15T20:04:29.556Z,20.73
2023-02-15T20:06:57.239Z,19.93
2023-02-15T20:09:25.735Z,22.90
2023-02-15T20:11:52.884Z,23.10
2023-02-15T20:14:19.622Z,24.23
2023-02-15T20:16:46.060Z,22.37
2023-02-15T20:19:13.372Z,21.53
2023-02-15T20:21:40.933Z,21.60
2023-02-15T20:24:07.941Z,23.87
2023-02-15T20:26:37.680Z,23.77
2023-02-15T20:29:04.067Z,23.00
2023-02-15T20:31:30.595Z,24.63
2023-02-15T20:33:58.652Z,21.73
2023-02-15T20:36:26.398Z,21.37
2023-02-15T20:38:52.793Z,21.37
2023-02-15T20:41:35.829Z,20.73
2023-02-15T20:44:08.752Z,20.40
2023-02-15T20:46:35.348Z,20.47
2023-02-15T20:49:01.747Z,22.00
2023-02-15T20:51:28.096Z,20.70
2023-02-15T20:53:54.575Z,19.90
2023-02-15T20:56:22.548Z,19.47
2023-02-15T20:58:49.050Z,20.20
2023-02-15T21:01:15.958Z,21.10
2023-02-15T21:03:42.616Z,20.23
2023-02-15T21:06:12.760Z,19.83
2023-02-15T21:08:39.260Z,19.97
2023-02-15T21:11:05.966Z,17.77
2023-02-15T21:13:36.053Z,19.83
2023-02-15T21:16:02.673Z,19.27
2023-02-15T21:18:30.640Z,18.33
2023-02-15T21:20:58.919Z,19.83
2023-02-15T21:23:34.966Z,18.70
2023-02-15T21:26:01.988Z,17.90
2023-02-15T21:28:29.318Z,18.80
2023-02-15T21:30:57.933Z,17.87
2023-02-15T21:33:24.574Z,17.67
2023-02-15T21:35:52.780Z,17.77
2023-02-15T21:38:21.252Z,16.90
2023-02-15T21:40:48.104Z,18.53
2023-02-15T21:43:34.266Z,18.87
2023-02-15T21:46:29.617Z,17.90
2023-02-15T21:48:56.041Z,17.13
2023-02-15T21:51:40.845Z,16.73
2023-02-15T21:54:09.989Z,17.77
2023-02-15T21:56:36.485Z,17.57
2023-02-15T21:59:03.331Z,18.63
2023-02-15T22:01:29.844Z,18.60
2023-02-15T22:03:57.683Z,18.23
2023-02-15T22:06:24.119Z,17.17
2023-02-15T22:08:51.578Z,17.47
2023-02-15T22:11:19.873Z,17.10
2023-02-15T22:13:47.124Z,17.20
2023-02-15T22:16:15.480Z,17.33
2023-02-15T22:18:42.118Z,17.43
2023-02-15T22:21:09.658Z,16.47
2023-02-15T22:23:36.021Z,17.90
2023-02-15T22:26:04.215Z,16.70
2023-02-15T22:28:35.027Z,17.67
2023-02-15T22:31:02.892Z,16.97
2023-02-15T22:33:30.994Z,18.63
2023-02-15T22:35:59.428Z,19.43
2023-02-15T22:38:26.285Z,18.60
2023-02-15T22:40:55.127Z,18.57
2023-02-15T22:43:35.729Z,17.60
2023-02-15T22:46:03.262Z,18.50
2023-02-15T22:48:29.685Z,18.97
2023-02-15T22:50:56.037Z,17.00
2023-02-15T22:53:22.438Z,17.70
2023-02-15T22:55:48.867Z,17.50
2023-02-15T22:58:26.494Z,18.40
2023-02-15T23:00:52.986Z,18.10
2023-02-15T23:03:24.604Z,19.47
2023-02-15T23:05:51.649Z,16.77
2023-02-15T23:08:18.173Z,17.17
2023-02-15T23:10:46.310Z,18.30
2023-02-15T23:13:27.021Z,17.60
2023-02-15T23:15:58.082Z,17.43
2023-02-15T23:18:26.808Z,17.50
2023-02-15T23:20:57.343Z,17.70
2023-02-15T23:23:35.178Z,17.47
2023-02-15T23:26:04.385Z,18.73
2023-02-15T23:28:33.969Z,18.23
2023-02-15T23:31:00.490Z,18.07
2023-02-15T23:33:29.851Z,16.90
2023-02-15T23:35:56.768Z,17.53
2023-02-15T23:38:24.916Z,17.57
2023-02-15T23:41:12.317Z,17.80
2023-02-15T23:43:40.233Z,16.20
2023-02-15T23:46:07.094Z,16.53
2023-02-15T23:48:38.015Z,16.20
2023-02-15T23:51:05.708Z,17.23
2023-02-15T23:53:32.611Z,15.67
2023-02-15T23:55:59.479Z,16.70
2023-02-15T23:58:33.744Z,17.73
